sensor_id;sensor_type;location;lat;lon;timestamp;pressure;altitude;pressure_sealevel;temperature;humidity
15634;BME280;14654;48.898;8.308;2023-05-23T00:01:11;100125.38;;;18.86;100.00
15634;BME280;14654;48.898;8.308;2023-05-23T00:03:38;100120.13;;;18.86;100.00
15634;BME280;14654;48.898;8.308;2023-05-23T00:06:05;100122.63;;;18.89;100.00
15634;BME280;14654;48.898;8.308;2023-05-23T00:08:31;100124.34;;;18.90;100.00
15634;BME280;14654;48.898;8.308;2023-05-23T00:10:56;100116.28;;;18.93;100.00
15634;BME280;14654;48.898;8.308;2023-05-23T00:13:21;100116.28;;;18.95;100.00
15634;BME280;14654;48.898;8.308;2023-05-23T00:15:47;100115.34;;;18.96;100.00
15634;BME280;14654;48.898;8.308;2023-05-23T00:18:13;100112.66;;;18.97;100.00
15634;BME280;14654;48.898;8.308;2023-05-23T00:20:40;100119.47;;;19.01;100.00
15634;BME280;14654;48.898;8.308;2023-05-23T00:23:11;100128.09;;;19.03;100.00
15634;BME280;14654;48.898;8.308;2023-05-23T00:25:43;100133.28;;;19.05;100.00
15634;BME280;14654;48.898;8.308;2023-05-23T00:28:12;100132.44;;;19.04;100.00
15634;BME280;14654;48.898;8.308;2023-05-23T00:30:38;100129.72;;;19.06;100.00
15634;BME280;14654;48.898;8.308;2023-05-23T00:33:03;100129.63;;;19.08;100.00
15634;BME280;14654;48.898;8.308;2023-05-23T00:35:28;100131.34;;;19.09;100.00
15634;BME280;14654;48.898;8.308;2023-05-23T00:37:53;100127.88;;;19.08;100.00
15634;BME280;14654;48.898;8.308;2023-05-23T00:40:22;100124.41;;;19.08;100.00
15634;BME280;14654;48.898;8.308;2023-05-23T00:42:48;100124.41;;;19.08;100.00
15634;BME280;14654;48.898;8.308;2023-05-23T00:45:15;100127.09;;;19.06;100.00
15634;BME280;14654;48.898;8.308;2023-05-23T00:47:41;100128.03;;;19.05;100.00
15634;BME280;14654;48.898;8.308;2023-05-23T00:50:08;100133.28;;;19.05;100.00
15634;BME280;14654;48.898;8.308;2023-05-23T00:52:35;100129.03;;;19.02;100.00
15634;BME280;14654;48.898;8.308;2023-05-23T00:55:01;100133.41;;;19.02;100.00
15634;BME280;14654;48.898;8.308;2023-05-23T00:57:27;100130.88;;;19.00;100.00
15634;BME280;14654;48.898;8.308;2023-05-23T00:59:52;100135.25;;;19.00;100.00
15634;BME280;14654;48.898;8.308;2023-05-23T01:02:18;100141.34;;;19.00;100.00
15634;BME280;14654;48.898;8.308;2023-05-23T01:04:46;100132.63;;;19.00;100.00
15634;BME280;14654;48.898;8.308;2023-05-23T01:07:12;100141.34;;;19.00;100.00
15634;BME280;14654;48.898;8.308;2023-05-23T01:09:37;100143.91;;;19.02;100.00
15634;BME280;14654;48.898;8.308;2023-05-23T01:12:24;100143.84;;;19.03;100.00
15634;BME280;14654;48.898;8.308;2023-05-23T01:15:09;100146.31;;;19.07;100.00
15634;BME280;14654;48.898;8.308;2023-05-23T01:17:40;100141.13;;;19.05;100.00
15634;BME280;14654;48.898;8.308;2023-05-23T01:20:12;100139.38;;;19.06;100.00
15634;BME280;14654;48.898;8.308;2023-05-23T01:28:27;100128.94;;;19.04;100.00
15634;BME280;14654;48.898;8.308;2023-05-23T01:30:56;100134.19;;;19.04;100.00
15634;BME280;14654;48.898;8.308;2023-05-23T01:33:23;100137.72;;;19.03;100.00
15634;BME280;14654;48.898;8.308;2023-05-23T01:35:49;100133.41;;;19.02;100.00
15634;BME280;14654;48.898;8.308;2023-05-23T01:38:15;100135.25;;;19.00;100.00
15634;BME280;14654;48.898;8.308;2023-05-23T01:40:40;100137.97;;;18.98;100.00
15634;BME280;14654;48.898;8.308;2023-05-23T01:43:05;100138.09;;;18.95;100.00
15634;BME280;14654;48.898;8.308;2023-05-23T01:45:31;100139.91;;;18.93;100.00
15634;BME280;14654;48.898;8.308;2023-05-23T01:47:57;100146.00;;;18.94;100.00
15634;BME280;14654;48.898;8.308;2023-05-23T01:50:24;100140.81;;;18.92;100.00
15634;BME280;14654;48.898;8.308;2023-05-23T01:52:50;100147.94;;;18.90;100.00
15634;BME280;14654;48.898;8.308;2023-05-23T01:55:19;100150.59;;;18.88;100.00
15634;BME280;14654;48.898;8.308;2023-05-23T01:57:55;100152.44;;;18.86;100.00
15634;BME280;14654;48.898;8.308;2023-05-23T02:00:21;100148.13;;;18.85;100.00
15634;BME280;14654;48.898;8.308;2023-05-23T02:02:47;100152.44;;;18.86;100.00
15634;BME280;14654;48.898;8.308;2023-05-23T02:05:13;100157.75;;;18.85;100.00
15634;BME280;14654;48.898;8.308;2023-05-23T02:07:38;100158.56;;;18.87;100.00
15634;BME280;14654;48.898;8.308;2023-05-23T02:10:06;100160.25;;;18.88;100.00
15634;BME280;14654;48.898;8.308;2023-05-23T02:12:32;100153.22;;;18.88;100.00
15634;BME280;14654;48.898;8.308;2023-05-23T02:14:57;100159.38;;;18.87;100.00
15634;BME280;14654;48.898;8.308;2023-05-23T02:17:22;100163.72;;;18.88;100.00
15634;BME280;14654;48.898;8.308;2023-05-23T02:19:48;100168.13;;;18.88;100.00
15634;BME280;14654;48.898;8.308;2023-05-23T02:22:13;100161.97;;;18.89;100.00
15634;BME280;14654;48.898;8.308;2023-05-23T02:24:39;100154.09;;;18.89;100.00
15634;BME280;14654;48.898;8.308;2023-05-23T02:27:05;100152.31;;;18.89;100.00
15634;BME280;14654;48.898;8.308;2023-05-23T02:29:30;100161.97;;;18.89;100.00
15634;BME280;14654;48.898;8.308;2023-05-23T02:31:55;100161.97;;;18.89;100.00
15634;BME280;14654;48.898;8.308;2023-05-23T02:34:21;100162.78;;;18.89;100.00
15634;BME280;14654;48.898;8.308;2023-05-23T02:36:46;100168.97;;;18.88;100.00
15634;BME280;14654;48.898;8.308;2023-05-23T02:39:11;100173.28;;;18.89;100.00
15634;BME280;14654;48.898;8.308;2023-05-23T02:41:37;100171.56;;;18.88;100.00
15634;BME280;14654;48.898;8.308;2023-05-23T02:44:02;100168.97;;;18.88;100.00
15634;BME280;14654;48.898;8.308;2023-05-23T02:46:27;100174.19;;;18.88;100.00
15634;BME280;14654;48.898;8.308;2023-05-23T02:48:53;100169.81;;;18.89;100.00
15634;BME280;14654;48.898;8.308;2023-05-23T02:51:18;100172.50;;;18.87;100.00
15634;BME280;14654;48.898;8.308;2023-05-23T02:53:43;100182.97;;;18.87;100.00
15634;BME280;14654;48.898;8.308;2023-05-23T02:56:09;100175.06;;;18.89;100.00
15634;BME280;14654;48.898;8.308;2023-05-23T02:58:34;100171.53;;;18.90;100.00
15634;BME280;14654;48.898;8.308;2023-05-23T03:01:03;100178.44;;;18.91;100.00
15634;BME280;14654;48.898;8.308;2023-05-23T03:03:29;100176.78;;;18.90;100.00
15634;BME280;14654;48.898;8.308;2023-05-23T03:06:02;100177.59;;;18.91;100.00
15634;BME280;14654;48.898;8.308;2023-05-23T03:08:29;100181.94;;;18.92;100.00
15634;BME280;14654;48.898;8.308;2023-05-23T03:10:54;100178.38;;;18.93;100.00
15634;BME280;14654;48.898;8.308;2023-05-23T03:13:19;100182.72;;;18.94;100.00
15634;BME280;14654;48.898;8.308;2023-05-23T03:15:45;100183.59;;;18.94;100.00
15634;BME280;14654;48.898;8.308;2023-05-23T03:18:10;100176.50;;;18.96;100.00
15634;BME280;14654;48.898;8.308;2023-05-23T03:20:36;100180.00;;;18.97;100.00
15634;BME280;14654;48.898;8.308;2023-05-23T03:23:02;100174.81;;;18.95;100.00
15634;BME280;14654;48.898;8.308;2023-05-23T03:25:27;100185.28;;;18.95;100.00
15634;BME280;14654;48.898;8.308;2023-05-23T03:27:53;100184.47;;;18.93;100.00
15634;BME280;14654;48.898;8.308;2023-05-23T03:30:19;100194.13;;;18.93;100.00
15634;BME280;14654;48.898;8.308;2023-05-23T03:32:45;100201.13;;;18.92;100.00
15634;BME280;14654;48.898;8.308;2023-05-23T03:35:10;100191.56;;;18.91;100.00
15634;BME280;14654;48.898;8.308;2023-05-23T03:37:36;100194.19;;;18.91;100.00
15634;BME280;14654;48.898;8.308;2023-05-23T03:40:02;100192.50;;;18.90;100.00
15634;BME280;14654;48.898;8.308;2023-05-23T03:42:27;100198.66;;;18.89;100.00
15634;BME280;14654;48.898;8.308;2023-05-23T03:44:53;100202.03;;;18.91;100.00
15634;BME280;14654;48.898;8.308;2023-05-23T03:47:18;100205.53;;;18.92;100.00
15634;BME280;14654;48.898;8.308;2023-05-23T03:49:44;100214.22;;;18.92;100.00
15634;BME280;14654;48.898;8.308;2023-05-23T03:52:10;100204.63;;;18.93;100.00
15634;BME280;14654;48.898;8.308;2023-05-23T03:54:35;100211.63;;;18.92;100.00
15634;BME280;14654;48.898;8.308;2023-05-23T03:57:01;100215.09;;;18.93;100.00
15634;BME280;14654;48.898;8.308;2023-05-23T03:59:27;100222.09;;;18.92;100.00
15634;BME280;14654;48.898;8.308;2023-05-23T04:01:52;100215.94;;;18.93;100.00
15634;BME280;14654;48.898;8.308;2023-05-23T04:04:17;100202.03;;;18.91;100.00
15634;BME280;14654;48.898;8.308;2023-05-23T04:06:45;100214.31;;;18.91;100.00
15634;BME280;14654;48.898;8.308;2023-05-23T04:09:10;100219.56;;;18.91;100.00
15634;BME280;14654;48.898;8.308;2023-05-23T04:11:35;100217.84;;;18.89;100.00
15634;BME280;14654;48.898;8.308;2023-05-23T04:14:01;100230.03;;;18.91;100.00
15634;BME280;14654;48.898;8.308;2023-05-23T04:16:26;100226.59;;;18.90;100.00
15634;BME280;14654;48.898;8.308;2023-05-23T04:18:52;100228.34;;;18.89;100.00
15634;BME280;14654;48.898;8.308;2023-05-23T04:21:18;100226.59;;;18.90;100.00
15634;BME280;14654;48.898;8.308;2023-05-23T04:23:43;100226.59;;;18.90;100.00
15634;BME280;14654;48.898;8.308;2023-05-23T04:26:09;100217.78;;;18.91;100.00
15634;BME280;14654;48.898;8.308;2023-05-23T04:28:35;100218.63;;;18.92;100.00
15634;BME280;14654;48.898;8.308;2023-05-23T04:31:01;100233.47;;;18.93;100.00
15634;BME280;14654;48.898;8.308;2023-05-23T04:33:28;100225.63;;;18.91;100.00
15634;BME280;14654;48.898;8.308;2023-05-23T04:35:54;100228.47;;;18.86;100.00
15634;BME280;14654;48.898;8.308;2023-05-23T04:38:20;100243.50;;;18.83;100.00
15634;BME280;14654;48.898;8.308;2023-05-23T04:40:47;100236.63;;;18.80;100.00
15634;BME280;14654;48.898;8.308;2023-05-23T04:43:13;100235.72;;;18.81;100.00
15634;BME280;14654;48.898;8.308;2023-05-23T04:45:40;100246.13;;;18.83;100.00
15634;BME280;14654;48.898;8.308;2023-05-23T04:48:06;100248.66;;;18.84;100.00
15634;BME280;14654;48.898;8.308;2023-05-23T04:50:32;100253.91;;;18.84;100.00
15634;BME280;14654;48.898;8.308;2023-05-23T04:52:59;100252.06;;;18.86;100.00
15634;BME280;14654;48.898;8.308;2023-05-23T04:55:24;100260.94;;;18.84;100.00
15634;BME280;14654;48.898;8.308;2023-05-23T04:57:50;100259.09;;;18.86;100.00
15634;BME280;14654;48.898;8.308;2023-05-23T05:00:16;100253.78;;;18.87;100.00
15634;BME280;14654;48.898;8.308;2023-05-23T05:02:41;100256.28;;;18.91;100.00
15634;BME280;14654;48.898;8.308;2023-05-23T05:05:07;100260.50;;;18.95;100.00
15634;BME280;14654;48.898;8.308;2023-05-23T05:07:33;100266.44;;;18.98;100.00
15634;BME280;14654;48.898;8.308;2023-05-23T05:10:00;100262.69;;;19.04;100.00
15634;BME280;14654;48.898;8.308;2023-05-23T05:12:26;100262.44;;;19.10;100.00
15634;BME280;14654;48.898;8.308;2023-05-23T05:14:51;100259.47;;;19.18;100.00
15634;BME280;14654;48.898;8.308;2023-05-23T05:17:16;100260.88;;;19.25;100.00
15634;BME280;14654;48.898;8.308;2023-05-23T05:19:44;100257.91;;;19.33;100.00
15634;BME280;14654;48.898;8.308;2023-05-23T05:22:09;100260.31;;;19.38;100.00
15634;BME280;14654;48.898;8.308;2023-05-23T05:24:36;100264.63;;;19.39;100.00
15634;BME280;14654;48.898;8.308;2023-05-23T05:27:02;100269.19;;;19.35;100.00
15634;BME280;14654;48.898;8.308;2023-05-23T05:29:27;100269.41;;;19.30;100.00
15634;BME280;14654;48.898;8.308;2023-05-23T05:31:52;100275.66;;;19.28;100.00
15634;BME280;14654;48.898;8.308;2023-05-23T05:34:18;100264.38;;;19.26;100.00
15634;BME280;14654;48.898;8.308;2023-05-23T05:36:43;100266.81;;;19.29;100.00
15634;BME280;14654;48.898;8.308;2023-05-23T05:39:13;100272.81;;;19.32;100.00
15634;BME280;14654;48.898;8.308;2023-05-23T05:41:38;100265.72;;;19.34;100.00
15634;BME280;14654;48.898;8.308;2023-05-23T05:44:05;100278.06;;;19.32;100.00
15634;BME280;14654;48.898;8.308;2023-05-23T05:46:30;100282.44;;;19.32;100.00
15634;BME280;14654;48.898;8.308;2023-05-23T05:48:55;100289.25;;;19.36;100.00
15634;BME280;14654;48.898;8.308;2023-05-23T05:51:21;100284.13;;;19.33;100.00
15634;BME280;14654;48.898;8.308;2023-05-23T05:53:46;100281.66;;;19.30;100.00
15634;BME280;14654;48.898;8.308;2023-05-23T05:56:13;100283.34;;;19.31;100.00
15634;BME280;14654;48.898;8.308;2023-05-23T05:58:38;100292.94;;;19.32;100.00
15634;BME280;14654;48.898;8.308;2023-05-23T06:01:04;100289.34;;;19.34;100.00
15634;BME280;14654;48.898;8.308;2023-05-23T06:03:30;100289.91;;;19.41;100.00
15634;BME280;14654;48.898;8.308;2023-05-23T06:05:56;100292.38;;;19.44;100.00
15634;BME280;14654;48.898;8.308;2023-05-23T06:08:21;100293.31;;;19.43;100.00
15634;BME280;14654;48.898;8.308;2023-05-23T06:10:47;100294.16;;;19.44;100.00
15634;BME280;14654;48.898;8.308;2023-05-23T06:13:12;100299.31;;;19.45;100.00
15634;BME280;14654;48.898;8.308;2023-05-23T06:15:37;100300.53;;;19.38;97.74
15634;BME280;14654;48.898;8.308;2023-05-23T06:18:03;100305.56;;;19.24;95.94
15634;BME280;14654;48.898;8.308;2023-05-23T06:20:28;100311.41;;;19.10;95.12
15634;BME280;14654;48.898;8.308;2023-05-23T06:22:53;100312.66;;;19.01;94.75
15634;BME280;14654;48.898;8.308;2023-05-23T06:25:19;100311.94;;;18.97;95.82
15634;BME280;14654;48.898;8.308;2023-05-23T06:27:44;100314.69;;;18.94;96.52
15634;BME280;14654;48.898;8.308;2023-05-23T06:30:10;100317.31;;;18.94;96.47
15634;BME280;14654;48.898;8.308;2023-05-23T06:32:36;100319.75;;;18.99;96.03
15634;BME280;14654;48.898;8.308;2023-05-23T06:35:02;100336.56;;;18.95;95.35
15634;BME280;14654;48.898;8.308;2023-05-23T06:37:27;100324.44;;;18.91;95.74
15634;BME280;14654;48.898;8.308;2023-05-23T06:39:53;100336.56;;;18.93;96.40
15634;BME280;14654;48.898;8.308;2023-05-23T06:42:18;100337.25;;;18.98;96.01
15634;BME280;14654;48.898;8.308;2023-05-23T06:44:43;100340.66;;;19.00;96.21
15634;BME280;14654;48.898;8.308;2023-05-23T06:47:09;100350.16;;;19.03;96.88
15634;BME280;14654;48.898;8.308;2023-05-23T06:49:34;100351.03;;;19.03;95.48
15634;BME280;14654;48.898;8.308;2023-05-23T06:51:59;100359.22;;;18.96;95.46
15634;BME280;14654;48.898;8.308;2023-05-23T06:54:25;100361.94;;;18.93;95.87
15634;BME280;14654;48.898;8.308;2023-05-23T06:56:50;100362.78;;;18.93;96.42
15634;BME280;14654;48.898;8.308;2023-05-23T06:59:15;100378.59;;;18.92;95.90
15634;BME280;14654;48.898;8.308;2023-05-23T07:01:41;100371.56;;;18.92;96.46
15634;BME280;14654;48.898;8.308;2023-05-23T07:04:06;100381.13;;;18.93;97.43
15634;BME280;14654;48.898;8.308;2023-05-23T07:06:31;100380.25;;;18.94;97.16
15634;BME280;14654;48.898;8.308;2023-05-23T07:08:57;100381.13;;;18.95;97.26
15634;BME280;14654;48.898;8.308;2023-05-23T07:11:22;100381.84;;;18.98;97.27
15634;BME280;14654;48.898;8.308;2023-05-23T07:13:48;100388.22;;;19.13;95.50
15634;BME280;14654;48.898;8.308;2023-05-23T07:16:14;100388.84;;;19.18;92.48
15634;BME280;14654;48.898;8.308;2023-05-23T07:18:39;100385.88;;;19.26;92.63
15634;BME280;14654;48.898;8.308;2023-05-23T07:21:04;100391.81;;;19.31;91.18
15634;BME280;14654;48.898;8.308;2023-05-23T07:23:33;100389.03;;;19.34;91.24
15634;BME280;14654;48.898;8.308;2023-05-23T07:25:59;100396.28;;;19.48;91.20
15634;BME280;14654;48.898;8.308;2023-05-23T07:28:24;100402.78;;;19.60;89.38
15634;BME280;14654;48.898;8.308;2023-05-23T07:30:50;100397.06;;;19.50;90.10
15634;BME280;14654;48.898;8.308;2023-05-23T07:33:15;100398.88;;;19.50;90.00
15634;BME280;14654;48.898;8.308;2023-05-23T07:35:40;100399.94;;;19.65;90.32
15634;BME280;14654;48.898;8.308;2023-05-23T07:38:06;100391.91;;;19.89;89.35
15634;BME280;14654;48.898;8.308;2023-05-23T07:40:31;100401.97;;;19.98;89.12
15634;BME280;14654;48.898;8.308;2023-05-23T07:42:56;100400.28;;;19.97;87.49
15634;BME280;14654;48.898;8.308;2023-05-23T07:45:22;100401.53;;;19.88;88.09
15634;BME280;14654;48.898;8.308;2023-05-23T07:47:47;100408.38;;;19.92;88.60
15634;BME280;14654;48.898;8.308;2023-05-23T07:50:13;100407.09;;;20.01;85.90
15634;BME280;14654;48.898;8.308;2023-05-23T07:52:39;100403.00;;;20.13;84.08
15634;BME280;14654;48.898;8.308;2023-05-23T07:55:05;100387.97;;;20.17;83.61
15634;BME280;14654;48.898;8.308;2023-05-23T07:57:31;100402.50;;;20.24;83.46
15634;BME280;14654;48.898;8.308;2023-05-23T07:59:56;100401.19;;;20.15;83.84
15634;BME280;14654;48.898;8.308;2023-05-23T08:02:21;100411.22;;;20.07;84.25
15634;BME280;14654;48.898;8.308;2023-05-23T08:04:47;100409.19;;;20.12;84.27
15634;BME280;14654;48.898;8.308;2023-05-23T08:07:12;100418.75;;;19.95;84.00
15634;BME280;14654;48.898;8.308;2023-05-23T08:09:38;100414.41;;;19.94;84.40
15634;BME280;14654;48.898;8.308;2023-05-23T08:12:05;100409.00;;;19.98;84.16
15634;BME280;14654;48.898;8.308;2023-05-23T08:14:30;100400.50;;;19.92;84.80
15634;BME280;14654;48.898;8.308;2023-05-23T08:16:55;100423.28;;;20.11;84.29
15634;BME280;14654;48.898;8.308;2023-05-23T08:19:21;100406.78;;;20.27;82.94
15634;BME280;14654;48.898;8.308;2023-05-23T08:21:47;100431.41;;;20.24;82.73
15634;BME280;14654;48.898;8.308;2023-05-23T08:24:12;100411.13;;;20.08;82.57
15634;BME280;14654;48.898;8.308;2023-05-23T08:26:38;100424.47;;;20.04;84.03
15634;BME280;14654;48.898;8.308;2023-05-23T08:29:03;100422.41;;;20.10;84.74
15634;BME280;14654;48.898;8.308;2023-05-23T08:31:29;100422.06;;;20.18;84.46
15634;BME280;14654;48.898;8.308;2023-05-23T08:33:55;100431.16;;;20.11;83.85
15634;BME280;14654;48.898;8.308;2023-05-23T08:36:21;100447.28;;;20.03;84.01
15634;BME280;14654;48.898;8.308;2023-05-23T08:38:46;100429.59;;;19.88;84.48
15634;BME280;14654;48.898;8.308;2023-05-23T08:41:17;100441.69;;;19.71;84.22
15634;BME280;14654;48.898;8.308;2023-05-23T08:43:43;100434.84;;;19.67;84.97
15634;BME280;14654;48.898;8.308;2023-05-23T08:46:08;100437.84;;;19.78;85.74
15634;BME280;14654;48.898;8.308;2023-05-23T08:48:37;100434.50;;;19.95;84.85
15634;BME280;14654;48.898;8.308;2023-05-23T08:51:03;100451.19;;;19.94;84.62
15634;BME280;14654;48.898;8.308;2023-05-23T08:53:28;100451.25;;;19.72;84.80
15634;BME280;14654;48.898;8.308;2023-05-23T08:55:55;100444.00;;;19.58;86.24
15634;BME280;14654;48.898;8.308;2023-05-23T08:58:26;100456.13;;;19.61;86.38
15634;BME280;14654;48.898;8.308;2023-05-23T09:00:54;100453.50;;;19.61;86.58
15634;BME280;14654;48.898;8.308;2023-05-23T09:03:19;100461.53;;;19.58;86.66
15634;BME280;14654;48.898;8.308;2023-05-23T09:05:45;100454.75;;;19.52;86.17
15634;BME280;14654;48.898;8.308;2023-05-23T09:08:11;100455.31;;;19.59;86.34
15634;BME280;14654;48.898;8.308;2023-05-23T09:10:37;100468.97;;;19.67;84.16
15634;BME280;14654;48.898;8.308;2023-05-23T09:13:04;100458.28;;;19.72;84.37
15634;BME280;14654;48.898;8.308;2023-05-23T09:15:29;100456.56;;;19.91;85.02
15634;BME280;14654;48.898;8.308;2023-05-23T09:17:59;100459.47;;;20.04;82.08
15634;BME280;14654;48.898;8.308;2023-05-23T09:20:27;100455.72;;;20.10;82.56
15634;BME280;14654;48.898;8.308;2023-05-23T09:22:53;100468.00;;;20.29;81.27
15634;BME280;14654;48.898;8.308;2023-05-23T09:25:19;100463.28;;;20.35;81.06
15634;BME280;14654;48.898;8.308;2023-05-23T09:27:44;100456.75;;;20.44;80.51
15634;BME280;14654;48.898;8.308;2023-05-23T09:30:11;100458.66;;;20.60;80.56
15634;BME280;14654;48.898;8.308;2023-05-23T09:32:37;100456.81;;;20.62;80.03
15634;BME280;14654;48.898;8.308;2023-05-23T09:35:04;100444.41;;;20.83;78.90
15634;BME280;14654;48.898;8.308;2023-05-23T09:37:34;100449.31;;;20.71;78.78
15634;BME280;14654;48.898;8.308;2023-05-23T09:40:04;100447.63;;;20.70;80.26
15634;BME280;14654;48.898;8.308;2023-05-23T09:42:32;100461.06;;;20.64;79.07
15634;BME280;14654;48.898;8.308;2023-05-23T09:45:01;100457.34;;;20.68;78.91
15634;BME280;14654;48.898;8.308;2023-05-23T09:47:26;100454.88;;;20.65;78.00
15634;BME280;14654;48.898;8.308;2023-05-23T09:49:51;100465.97;;;20.53;78.43
15634;BME280;14654;48.898;8.308;2023-05-23T09:52:17;100458.78;;;20.39;78.56
15634;BME280;14654;48.898;8.308;2023-05-23T09:54:44;100464.94;;;20.38;79.95
15634;BME280;14654;48.898;8.308;2023-05-23T09:57:11;100464.22;;;20.53;79.54
15634;BME280;14654;48.898;8.308;2023-05-23T09:59:40;100458.03;;;20.54;77.86
15634;BME280;14654;48.898;8.308;2023-05-23T10:02:10;100466.44;;;20.44;77.36
15634;BME280;14654;48.898;8.308;2023-05-23T10:04:38;100471.00;;;20.40;78.76
15634;BME280;14654;48.898;8.308;2023-05-23T10:07:11;100461.50;;;20.55;79.38
15634;BME280;14654;48.898;8.308;2023-05-23T10:09:42;100466.19;;;20.86;78.70
15634;BME280;14654;48.898;8.308;2023-05-23T10:15:01;100466.00;;;21.07;75.48
15634;BME280;14654;48.898;8.308;2023-05-23T10:20:00;100465.56;;;21.16;75.68
15634;BME280;14654;48.898;8.308;2023-05-23T10:22:29;100470.16;;;20.76;75.87
15634;BME280;14654;48.898;8.308;2023-05-23T10:24:55;100473.59;;;20.59;76.15
15634;BME280;14654;48.898;8.308;2023-05-23T10:27:21;100471.19;;;20.54;76.51
15634;BME280;14654;48.898;8.308;2023-05-23T10:29:47;100470.50;;;20.68;76.18
15634;BME280;14654;48.898;8.308;2023-05-23T10:32:13;100464.97;;;20.75;77.59
15634;BME280;14654;48.898;8.308;2023-05-23T10:37:38;100465.63;;;20.97;76.80
15634;BME280;14654;48.898;8.308;2023-05-23T10:40:26;100459.91;;;21.24;76.19
15634;BME280;14654;48.898;8.308;2023-05-23T10:43:00;100458.16;;;21.41;75.47
15634;BME280;14654;48.898;8.308;2023-05-23T10:45:27;100453.09;;;21.20;75.89
15634;BME280;14654;48.898;8.308;2023-05-23T10:47:52;100455.63;;;21.22;76.63
15634;BME280;14654;48.898;8.308;2023-05-23T10:50:34;100458.16;;;21.41;75.77
15634;BME280;14654;48.898;8.308;2023-05-23T10:53:02;100460.91;;;21.04;75.74
15634;BME280;14654;48.898;8.308;2023-05-23T10:55:35;100463.47;;;21.23;75.23
15634;BME280;14654;48.898;8.308;2023-05-23T10:58:20;100463.22;;;21.45;74.44
15634;BME280;14654;48.898;8.308;2023-05-23T11:00:59;100466.69;;;21.64;73.73
15634;BME280;14654;48.898;8.308;2023-05-23T11:06:41;100457.84;;;21.98;72.32
15634;BME280;14654;48.898;8.308;2023-05-23T11:09:13;100461.44;;;22.13;72.69
15634;BME280;14654;48.898;8.308;2023-05-23T11:11:59;100461.19;;;22.18;71.12
15634;BME280;14654;48.898;8.308;2023-05-23T11:19:36;100449.84;;;22.32;71.51
15634;BME280;14654;48.898;8.308;2023-05-23T11:22:02;100453.31;;;22.50;70.78
15634;BME280;14654;48.898;8.308;2023-05-23T11:24:47;100450.34;;;22.71;69.73
15634;BME280;14654;48.898;8.308;2023-05-23T11:27:14;100458.16;;;22.88;69.30
15634;BME280;14654;48.898;8.308;2023-05-23T11:29:39;100448.22;;;23.08;69.57
15634;BME280;14654;48.898;8.308;2023-05-23T11:32:11;100452.25;;;23.29;69.68
15634;BME280;14654;48.898;8.308;2023-05-23T11:34:38;100449.34;;;23.04;70.04
15634;BME280;14654;48.898;8.308;2023-05-23T11:37:03;100450.56;;;22.67;70.63
15634;BME280;14654;48.898;8.308;2023-05-23T11:39:29;100444.97;;;22.42;71.59
15634;BME280;14654;48.898;8.308;2023-05-23T11:42:01;100446.97;;;22.20;73.91
15634;BME280;14654;48.898;8.308;2023-05-23T11:44:27;100445.59;;;21.97;73.73
15634;BME280;14654;48.898;8.308;2023-05-23T11:47:04;100452.47;;;21.84;74.36
15634;BME280;14654;48.898;8.308;2023-05-23T11:49:33;100445.59;;;21.97;73.47
15634;BME280;14654;48.898;8.308;2023-05-23T11:52:00;100446.06;;;22.05;73.62
15634;BME280;14654;48.898;8.308;2023-05-23T11:54:26;100446.41;;;22.15;72.87
15634;BME280;14654;48.898;8.308;2023-05-23T11:56:52;100442.22;;;22.27;73.23
15634;BME280;14654;48.898;8.308;2023-05-23T11:59:18;100440.16;;;22.16;73.16
15634;BME280;14654;48.898;8.308;2023-05-23T12:01:43;100434.25;;;22.61;72.96
15634;BME280;14654;48.898;8.308;2023-05-23T12:04:09;100435.44;;;22.86;71.23
15634;BME280;14654;48.898;8.308;2023-05-23T12:06:39;100431.50;;;22.93;70.66
15634;BME280;14654;48.898;8.308;2023-05-23T12:09:05;100425.97;;;22.67;70.94
15634;BME280;14654;48.898;8.308;2023-05-23T12:11:32;100434.06;;;22.16;71.96
15634;BME280;14654;48.898;8.308;2023-05-23T12:13:57;100439.50;;;22.13;72.29
15634;BME280;14654;48.898;8.308;2023-05-23T12:16:27;100431.13;;;21.88;74.12
15634;BME280;14654;48.898;8.308;2023-05-23T12:18:53;100436.25;;;21.58;75.29
15634;BME280;14654;48.898;8.308;2023-05-23T12:21:19;100434.47;;;21.41;76.43
15634;BME280;14654;48.898;8.308;2023-05-23T12:23:44;100437.06;;;21.25;77.45
15634;BME280;14654;48.898;8.308;2023-05-23T12:26:09;100430.72;;;21.11;77.30
15634;BME280;14654;48.898;8.308;2023-05-23T12:28:38;100434.19;;;21.12;77.90
15634;BME280;14654;48.898;8.308;2023-05-23T12:31:11;100431.50;;;21.13;77.44
15634;BME280;14654;48.898;8.308;2023-05-23T12:33:40;100427.03;;;21.15;77.80
15634;BME280;14654;48.898;8.308;2023-05-23T12:36:08;100431.97;;;21.22;77.24
15634;BME280;14654;48.898;8.308;2023-05-23T12:38:33;100429.03;;;21.28;76.90
15634;BME280;14654;48.898;8.308;2023-05-23T12:43:37;100426.13;;;21.32;76.13
15634;BME280;14654;48.898;8.308;2023-05-23T12:46:02;100436.44;;;21.20;73.67
15634;BME280;14654;48.898;8.308;2023-05-23T12:48:28;100434.28;;;21.10;73.99
15634;BME280;14654;48.898;8.308;2023-05-23T12:50:53;100425.22;;;20.98;74.32
15634;BME280;14654;48.898;8.308;2023-05-23T12:53:19;100427.81;;;21.17;75.05
15634;BME280;14654;48.898;8.308;2023-05-23T12:55:44;100425.91;;;21.20;74.92
15634;BME280;14654;48.898;8.308;2023-05-23T12:58:09;100431.66;;;21.28;75.62
15634;BME280;14654;48.898;8.308;2023-05-23T13:00:35;100430.69;;;21.46;75.89
15634;BME280;14654;48.898;8.308;2023-05-23T13:03:00;100422.09;;;21.60;75.16
15634;BME280;14654;48.898;8.308;2023-05-23T13:05:26;100418.16;;;21.85;74.85
15634;BME280;14654;48.898;8.308;2023-05-23T13:07:51;100433.22;;;22.15;73.76